sensor_id;sensor_type;location;lat;lon;timestamp;P1;durP1;ratioP1;P2;durP2;ratioP2
5428;SDS011;2737;52.386;9.980;2022-08-06T00:00:48;3.13;;;1.30;;
5428;SDS011;2737;52.386;9.980;2022-08-06T00:03:15;2.10;;;1.00;;
5428;SDS011;2737;52.386;9.980;2022-08-06T00:05:44;3.83;;;1.50;;
5428;SDS011;2737;52.386;9.980;2022-08-06T00:08:11;2.10;;;1.37;;
5428;SDS011;2737;52.386;9.980;2022-08-06T00:10:38;3.67;;;1.50;;
5428;SDS011;2737;52.386;9.980;2022-08-06T00:13:05;3.60;;;1.50;;
5428;SDS011;2737;52.386;9.980;2022-08-06T00:15:32;5.53;;;1.40;;
5428;SDS011;2737;52.386;9.980;2022-08-06T00:18:00;2.30;;;1.20;;
5428;SDS011;2737;52.386;9.980;2022-08-06T00:20:27;3.37;;;1.50;;
5428;SDS011;2737;52.386;9.980;2022-08-06T00:22:55;7.70;;;1.60;;
5428;SDS011;2737;52.386;9.980;2022-08-06T00:25:23;6.90;;;1.50;;
5428;SDS011;2737;52.386;9.980;2022-08-06T00:27:50;2.70;;;1.53;;
5428;SDS011;2737;52.386;9.980;2022-08-06T00:30:17;2.60;;;1.30;;
5428;SDS011;2737;52.386;9.980;2022-08-06T00:32:44;1.80;;;1.50;;
5428;SDS011;2737;52.386;9.980;2022-08-06T00:35:12;2.70;;;1.43;;
5428;SDS011;2737;52.386;9.980;2022-08-06T00:37:39;2.87;;;1.63;;
5428;SDS011;2737;52.386;9.980;2022-08-06T00:40:08;6.20;;;1.33;;
5428;SDS011;2737;52.386;9.980;2022-08-06T00:42:36;5.03;;;1.10;;
5428;SDS011;2737;52.386;9.980;2022-08-06T00:45:03;2.80;;;1.43;;
5428;SDS011;2737;52.386;9.980;2022-08-06T00:47:33;2.97;;;1.17;;
5428;SDS011;2737;52.386;9.980;2022-08-06T00:50:00;2.70;;;1.30;;
5428;SDS011;2737;52.386;9.980;2022-08-06T00:52:27;6.03;;;1.70;;
5428;SDS011;2737;52.386;9.980;2022-08-06T00:54:55;1.20;;;1.10;;
5428;SDS011;2737;52.386;9.980;2022-08-06T00:57:24;2.60;;;1.40;;
5428;SDS011;2737;52.386;9.980;2022-08-06T00:59:53;3.93;;;1.00;;
5428;SDS011;2737;52.386;9.980;2022-08-06T01:02:20;1.63;;;1.13;;
5428;SDS011;2737;52.386;9.980;2022-08-06T01:04:47;1.20;;;1.10;;
5428;SDS011;2737;52.386;9.980;2022-08-06T01:07:14;2.13;;;1.00;;
5428;SDS011;2737;52.386;9.980;2022-08-06T01:09:41;1.20;;;1.10;;
5428;SDS011;2737;52.386;9.980;2022-08-06T01:12:08;1.97;;;0.90;;
5428;SDS011;2737;52.386;9.980;2022-08-06T01:14:36;1.10;;;1.00;;
5428;SDS011;2737;52.386;9.980;2022-08-06T01:17:05;3.00;;;1.37;;
5428;SDS011;2737;52.386;9.980;2022-08-06T01:19:41;1.53;;;1.13;;
5428;SDS011;2737;52.386;9.980;2022-08-06T01:22:27;5.33;;;1.43;;
5428;SDS011;2737;52.386;9.980;2022-08-06T01:25:30;2.10;;;1.20;;
5428;SDS011;2737;52.386;9.980;2022-08-06T01:28:12;2.70;;;0.90;;
5428;SDS011;2737;52.386;9.980;2022-08-06T01:30:43;1.93;;;1.00;;
5428;SDS011;2737;52.386;9.980;2022-08-06T01:33:14;4.70;;;1.30;;
5428;SDS011;2737;52.386;9.980;2022-08-06T01:35:47;1.40;;;1.30;;
5428;SDS011;2737;52.386;9.980;2022-08-06T01:38:20;4.10;;;1.20;;
5428;SDS011;2737;52.386;9.980;2022-08-06T01:40:51;1.57;;;1.30;;
5428;SDS011;2737;52.386;9.980;2022-08-06T01:43:21;1.30;;;1.20;;
5428;SDS011;2737;52.386;9.980;2022-08-06T01:45:50;3.50;;;1.70;;
5428;SDS011;2737;52.386;9.980;2022-08-06T01:48:19;5.13;;;1.50;;
5428;SDS011;2737;52.386;9.980;2022-08-06T01:50:50;1.13;;;0.90;;
5428;SDS011;2737;52.386;9.980;2022-08-06T01:53:22;2.90;;;1.27;;
5428;SDS011;2737;52.386;9.980;2022-08-06T01:55:57;6.13;;;1.23;;
5428;SDS011;2737;52.386;9.980;2022-08-06T01:58:29;2.60;;;0.93;;
5428;SDS011;2737;52.386;9.980;2022-08-06T02:00:59;3.20;;;1.20;;
5428;SDS011;2737;52.386;9.980;2022-08-06T02:03:30;1.80;;;1.20;;
5428;SDS011;2737;52.386;9.980;2022-08-06T02:05:59;7.87;;;1.57;;
5428;SDS011;2737;52.386;9.980;2022-08-06T02:08:29;1.33;;;1.17;;
5428;SDS011;2737;52.386;9.980;2022-08-06T02:10:58;4.27;;;1.40;;
5428;SDS011;2737;52.386;9.980;2022-08-06T02:13:29;2.30;;;1.30;;
5428;SDS011;2737;52.386;9.980;2022-08-06T02:15:59;1.17;;;1.00;;
5428;SDS011;2737;52.386;9.980;2022-08-06T02:18:29;2.93;;;1.53;;
5428;SDS011;2737;52.386;9.980;2022-08-06T02:21:00;1.30;;;1.20;;
5428;SDS011;2737;52.386;9.980;2022-08-06T02:23:32;1.53;;;1.13;;
5428;SDS011;2737;52.386;9.980;2022-08-06T02:26:01;6.50;;;1.60;;
5428;SDS011;2737;52.386;9.980;2022-08-06T02:28:31;1.53;;;1.23;;
5428;SDS011;2737;52.386;9.980;2022-08-06T02:31:00;8.00;;;2.17;;
5428;SDS011;2737;52.386;9.980;2022-08-06T02:33:28;3.43;;;1.37;;
5428;SDS011;2737;52.386;9.980;2022-08-06T02:35:57;4.47;;;1.57;;
5428;SDS011;2737;52.386;9.980;2022-08-06T02:38:31;3.97;;;1.30;;
5428;SDS011;2737;52.386;9.980;2022-08-06T02:41:05;3.17;;;1.23;;
5428;SDS011;2737;52.386;9.980;2022-08-06T02:43:40;1.30;;;1.20;;
5428;SDS011;2737;52.386;9.980;2022-08-06T02:46:14;1.93;;;1.30;;
5428;SDS011;2737;52.386;9.980;2022-08-06T02:48:49;2.50;;;1.20;;
5428;SDS011;2737;52.386;9.980;2022-08-06T02:51:18;1.97;;;1.40;;
5428;SDS011;2737;52.386;9.980;2022-08-06T02:53:54;2.20;;;1.30;;
5428;SDS011;2737;52.386;9.980;2022-08-06T02:56:25;1.30;;;0.97;;
5428;SDS011;2737;52.386;9.980;2022-08-06T02:58:56;2.30;;;1.03;;
5428;SDS011;2737;52.386;9.980;2022-08-06T03:01:26;5.30;;;2.07;;
5428;SDS011;2737;52.386;9.980;2022-08-06T03:03:57;2.80;;;1.00;;
5428;SDS011;2737;52.386;9.980;2022-08-06T03:06:27;2.00;;;0.90;;
5428;SDS011;2737;52.386;9.980;2022-08-06T03:08:56;2.33;;;1.13;;
5428;SDS011;2737;52.386;9.980;2022-08-06T03:11:25;4.30;;;1.30;;
5428;SDS011;2737;52.386;9.980;2022-08-06T03:13:56;7.07;;;1.30;;
5428;SDS011;2737;52.386;9.980;2022-08-06T03:16:24;1.33;;;1.03;;
5428;SDS011;2737;52.386;9.980;2022-08-06T03:18:53;2.00;;;1.30;;
5428;SDS011;2737;52.386;9.980;2022-08-06T03:21:21;2.80;;;1.30;;
5428;SDS011;2737;52.386;9.980;2022-08-06T03:23:50;1.93;;;1.27;;
5428;SDS011;2737;52.386;9.980;2022-08-06T03:26:18;2.13;;;1.73;;
5428;SDS011;2737;52.386;9.980;2022-08-06T03:28:46;2.10;;;1.23;;
5428;SDS011;2737;52.386;9.980;2022-08-06T03:31:14;1.23;;;1.13;;
5428;SDS011;2737;52.386;9.980;2022-08-06T03:33:42;3.33;;;1.70;;
5428;SDS011;2737;52.386;9.980;2022-08-06T03:36:10;3.43;;;1.50;;
5428;SDS011;2737;52.386;9.980;2022-08-06T03:38:38;1.70;;;1.37;;
5428;SDS011;2737;52.386;9.980;2022-08-06T03:41:09;2.30;;;1.40;;
5428;SDS011;2737;52.386;9.980;2022-08-06T03:43:38;1.73;;;1.27;;
5428;SDS011;2737;52.386;9.980;2022-08-06T03:46:05;1.40;;;1.30;;
5428;SDS011;2737;52.386;9.980;2022-08-06T03:48:36;3.77;;;1.80;;
5428;SDS011;2737;52.386;9.980;2022-08-06T03:51:12;3.03;;;1.37;;
5428;SDS011;2737;52.386;9.980;2022-08-06T03:53:43;2.40;;;1.70;;
5428;SDS011;2737;52.386;9.980;2022-08-06T03:56:13;3.73;;;1.37;;
5428;SDS011;2737;52.386;9.980;2022-08-06T03:58:44;2.13;;;1.40;;
5428;SDS011;2737;52.386;9.980;2022-08-06T04:01:15;2.27;;;1.43;;
5428;SDS011;2737;52.386;9.980;2022-08-06T04:03:47;2.30;;;1.40;;
5428;SDS011;2737;52.386;9.980;2022-08-06T04:06:15;4.33;;;1.60;;
5428;SDS011;2737;52.386;9.980;2022-08-06T04:08:45;5.53;;;1.90;;
5428;SDS011;2737;52.386;9.980;2022-08-06T04:11:13;3.43;;;1.70;;
5428;SDS011;2737;52.386;9.980;2022-08-06T04:13:41;2.83;;;1.53;;
5428;SDS011;2737;52.386;9.980;2022-08-06T04:16:10;3.43;;;1.80;;
5428;SDS011;2737;52.386;9.980;2022-08-06T04:18:39;3.20;;;1.63;;
5428;SDS011;2737;52.386;9.980;2022-08-06T04:21:10;2.83;;;1.63;;
5428;SDS011;2737;52.386;9.980;2022-08-06T04:23:41;4.20;;;1.73;;
5428;SDS011;2737;52.386;9.980;2022-08-06T04:26:08;4.43;;;2.00;;
5428;SDS011;2737;52.386;9.980;2022-08-06T04:28:39;4.37;;;1.70;;
5428;SDS011;2737;52.386;9.980;2022-08-06T04:31:08;4.70;;;2.03;;
5428;SDS011;2737;52.386;9.980;2022-08-06T04:33:36;2.00;;;1.80;;
5428;SDS011;2737;52.386;9.980;2022-08-06T04:36:05;2.83;;;1.80;;
5428;SDS011;2737;52.386;9.980;2022-08-06T04:38:35;7.03;;;2.60;;
5428;SDS011;2737;52.386;9.980;2022-08-06T04:41:02;4.50;;;2.30;;
5428;SDS011;2737;52.386;9.980;2022-08-06T04:43:30;2.67;;;1.93;;
5428;SDS011;2737;52.386;9.980;2022-08-06T04:45:58;4.40;;;1.70;;
5428;SDS011;2737;52.386;9.980;2022-08-06T04:48:25;3.70;;;1.90;;
5428;SDS011;2737;52.386;9.980;2022-08-06T04:50:53;3.57;;;2.60;;
5428;SDS011;2737;52.386;9.980;2022-08-06T04:53:20;3.50;;;2.00;;
5428;SDS011;2737;52.386;9.980;2022-08-06T04:55:49;3.33;;;1.80;;
5428;SDS011;2737;52.386;9.980;2022-08-06T04:58:16;4.40;;;2.30;;
5428;SDS011;2737;52.386;9.980;2022-08-06T05:00:44;2.57;;;2.07;;
5428;SDS011;2737;52.386;9.980;2022-08-06T05:03:12;5.43;;;2.23;;
5428;SDS011;2737;52.386;9.980;2022-08-06T05:05:41;2.60;;;2.03;;
5428;SDS011;2737;52.386;9.980;2022-08-06T05:08:11;1.87;;;1.70;;
5428;SDS011;2737;52.386;9.980;2022-08-06T05:10:41;2.73;;;2.30;;
5428;SDS011;2737;52.386;9.980;2022-08-06T05:13:15;5.53;;;1.97;;
5428;SDS011;2737;52.386;9.980;2022-08-06T05:15:49;10.13;;;2.80;;
5428;SDS011;2737;52.386;9.980;2022-08-06T05:18:20;4.43;;;2.10;;
5428;SDS011;2737;52.386;9.980;2022-08-06T05:20:51;7.33;;;2.77;;
5428;SDS011;2737;52.386;9.980;2022-08-06T05:23:21;29.77;;;2.90;;
5428;SDS011;2737;52.386;9.980;2022-08-06T05:25:50;6.07;;;2.20;;
5428;SDS011;2737;52.386;9.980;2022-08-06T05:28:20;5.40;;;2.27;;
5428;SDS011;2737;52.386;9.980;2022-08-06T05:30:48;3.50;;;2.00;;
5428;SDS011;2737;52.386;9.980;2022-08-06T05:33:22;4.73;;;2.20;;
5428;SDS011;2737;52.386;9.980;2022-08-06T05:35:51;7.67;;;2.50;;
5428;SDS011;2737;52.386;9.980;2022-08-06T05:38:19;4.20;;;2.30;;
5428;SDS011;2737;52.386;9.980;2022-08-06T05:40:46;2.50;;;2.23;;
5428;SDS011;2737;52.386;9.980;2022-08-06T05:43:13;5.43;;;2.27;;
5428;SDS011;2737;52.386;9.980;2022-08-06T05:45:41;1.83;;;1.73;;
5428;SDS011;2737;52.386;9.980;2022-08-06T05:48:12;4.53;;;2.00;;
5428;SDS011;2737;52.386;9.980;2022-08-06T05:50:43;5.43;;;2.17;;
5428;SDS011;2737;52.386;9.980;2022-08-06T05:53:16;2.67;;;2.03;;
5428;SDS011;2737;52.386;9.980;2022-08-06T05:55:48;2.40;;;1.97;;
5428;SDS011;2737;52.386;9.980;2022-08-06T05:58:25;1.90;;;1.70;;
5428;SDS011;2737;52.386;9.980;2022-08-06T06:00:58;3.60;;;1.73;;
5428;SDS011;2737;52.386;9.980;2022-08-06T06:03:27;2.50;;;1.83;;
5428;SDS011;2737;52.386;9.980;2022-08-06T06:05:55;5.33;;;1.90;;
5428;SDS011;2737;52.386;9.980;2022-08-06T06:08:25;2.80;;;1.90;;
5428;SDS011;2737;52.386;9.980;2022-08-06T06:10:52;5.43;;;1.83;;
5428;SDS011;2737;52.386;9.980;2022-08-06T06:13:21;3.70;;;1.60;;
5428;SDS011;2737;52.386;9.980;2022-08-06T06:15:50;3.10;;;1.90;;
5428;SDS011;2737;52.386;9.980;2022-08-06T06:18:28;3.10;;;1.73;;
5428;SDS011;2737;52.386;9.980;2022-08-06T06:21:08;5.20;;;1.50;;
5428;SDS011;2737;52.386;9.980;2022-08-06T06:23:40;1.40;;;1.30;;
5428;SDS011;2737;52.386;9.980;2022-08-06T06:26:13;3.93;;;1.43;;
5428;SDS011;2737;52.386;9.980;2022-08-06T06:28:48;2.40;;;1.33;;
5428;SDS011;2737;52.386;9.980;2022-08-06T06:31:24;4.97;;;1.33;;
5428;SDS011;2737;52.386;9.980;2022-08-06T06:33:57;1.53;;;1.10;;
5428;SDS011;2737;52.386;9.980;2022-08-06T06:36:32;7.43;;;2.03;;
5428;SDS011;2737;52.386;9.980;2022-08-06T06:39:05;1.13;;;1.10;;
5428;SDS011;2737;52.386;9.980;2022-08-06T06:41:37;3.90;;;1.30;;
5428;SDS011;2737;52.386;9.980;2022-08-06T06:44:10;2.83;;;1.20;;
5428;SDS011;2737;52.386;9.980;2022-08-06T06:46:43;4.23;;;1.17;;
5428;SDS011;2737;52.386;9.980;2022-08-06T06:49:18;4.43;;;1.37;;
5428;SDS011;2737;52.386;9.980;2022-08-06T06:51:52;1.30;;;0.90;;
5428;SDS011;2737;52.386;9.980;2022-08-06T06:54:32;3.40;;;1.10;;
5428;SDS011;2737;52.386;9.980;2022-08-06T06:57:04;1.50;;;1.20;;
5428;SDS011;2737;52.386;9.980;2022-08-06T06:59:36;2.77;;;0.93;;
5428;SDS011;2737;52.386;9.980;2022-08-06T07:02:05;4.77;;;1.77;;
5428;SDS011;2737;52.386;9.980;2022-08-06T07:04:38;5.03;;;1.33;;
5428;SDS011;2737;52.386;9.980;2022-08-06T07:07:07;4.73;;;1.27;;
5428;SDS011;2737;52.386;9.980;2022-08-06T07:09:34;2.30;;;0.83;;
5428;SDS011;2737;52.386;9.980;2022-08-06T07:12:02;3.90;;;1.10;;
5428;SDS011;2737;52.386;9.980;2022-08-06T07:14:32;3.57;;;1.17;;
5428;SDS011;2737;52.386;9.980;2022-08-06T07:17:02;1.87;;;0.83;;
5428;SDS011;2737;52.386;9.980;2022-08-06T07:19:31;6.83;;;1.47;;
5428;SDS011;2737;52.386;9.980;2022-08-06T07:22:01;2.23;;;0.80;;
5428;SDS011;2737;52.386;9.980;2022-08-06T07:24:31;1.73;;;0.70;;
5428;SDS011;2737;52.386;9.980;2022-08-06T07:27:00;0.90;;;0.70;;
5428;SDS011;2737;52.386;9.980;2022-08-06T07:29:29;4.83;;;0.90;;
5428;SDS011;2737;52.386;9.980;2022-08-06T07:31:57;1.00;;;0.90;;
5428;SDS011;2737;52.386;9.980;2022-08-06T07:34:26;5.00;;;1.93;;
5428;SDS011;2737;52.386;9.980;2022-08-06T07:36:54;3.87;;;1.10;;
5428;SDS011;2737;52.386;9.980;2022-08-06T07:39:24;3.30;;;0.90;;
5428;SDS011;2737;52.386;9.980;2022-08-06T07:41:54;2.43;;;0.80;;
5428;SDS011;2737;52.386;9.980;2022-08-06T07:44:25;5.70;;;0.97;;
5428;SDS011;2737;52.386;9.980;2022-08-06T07:46:54;3.80;;;0.90;;
5428;SDS011;2737;52.386;9.980;2022-08-06T07:49:25;1.87;;;0.90;;
5428;SDS011;2737;52.386;9.980;2022-08-06T07:51:57;8.40;;;0.90;;
5428;SDS011;2737;52.386;9.980;2022-08-06T07:54:27;1.10;;;0.80;;
5428;SDS011;2737;52.386;9.980;2022-08-06T07:56:55;2.40;;;0.90;;
5428;SDS011;2737;52.386;9.980;2022-08-06T07:59:24;2.57;;;0.60;;
5428;SDS011;2737;52.386;9.980;2022-08-06T08:01:51;2.33;;;0.77;;
5428;SDS011;2737;52.386;9.980;2022-08-06T08:04:20;2.90;;;0.90;;
5428;SDS011;2737;52.386;9.980;2022-08-06T08:07:05;5.53;;;0.80;;
5428;SDS011;2737;52.386;9.980;2022-08-06T08:09:35;1.33;;;0.70;;
5428;SDS011;2737;52.386;9.980;2022-08-06T08:12:03;1.07;;;0.60;;
5428;SDS011;2737;52.386;9.980;2022-08-06T08:14:32;1.63;;;0.80;;
5428;SDS011;2737;52.386;9.980;2022-08-06T08:17:01;1.03;;;0.63;;
5428;SDS011;2737;52.386;9.980;2022-08-06T08:19:28;4.20;;;0.67;;
5428;SDS011;2737;52.386;9.980;2022-08-06T08:21:57;3.60;;;0.80;;
5428;SDS011;2737;52.386;9.980;2022-08-06T08:24:26;1.20;;;0.70;;
5428;SDS011;2737;52.386;9.980;2022-08-06T08:26:55;3.40;;;0.73;;
5428;SDS011;2737;52.386;9.980;2022-08-06T08:29:22;5.60;;;0.80;;
5428;SDS011;2737;52.386;9.980;2022-08-06T08:31:49;3.80;;;0.80;;
5428;SDS011;2737;52.386;9.980;2022-08-06T08:34:16;4.40;;;1.00;;
5428;SDS011;2737;52.386;9.980;2022-08-06T08:36:43;1.40;;;0.80;;
5428;SDS011;2737;52.386;9.980;2022-08-06T08:39:11;2.53;;;0.70;;
5428;SDS011;2737;52.386;9.980;2022-08-06T08:41:40;7.33;;;0.83;;
5428;SDS011;2737;52.386;9.980;2022-08-06T08:44:11;8.43;;;1.30;;
5428;SDS011;2737;52.386;9.980;2022-08-06T08:46:42;3.70;;;0.83;;
5428;SDS011;2737;52.386;9.980;2022-08-06T08:49:13;2.60;;;0.73;;
5428;SDS011;2737;52.386;9.980;2022-08-06T08:51:45;1.30;;;0.80;;
5428;SDS011;2737;52.386;9.980;2022-08-06T08:54:14;1.60;;;1.10;;
5428;SDS011;2737;52.386;9.980;2022-08-06T08:56:43;8.00;;;0.87;;
5428;SDS011;2737;52.386;9.980;2022-08-06T08:59:12;1.57;;;1.03;;
5428;SDS011;2737;52.386;9.980;2022-08-06T09:01:40;1.20;;;0.50;;
5428;SDS011;2737;52.386;9.980;2022-08-06T09:04:08;4.97;;;0.93;;
5428;SDS011;2737;52.386;9.980;2022-08-06T09:06:36;5.00;;;1.00;;
5428;SDS011;2737;52.386;9.980;2022-08-06T09:09:04;1.43;;;0.70;;
5428;SDS011;2737;52.386;9.980;2022-08-06T09:11:32;1.53;;;0.70;;
5428;SDS011;2737;52.386;9.980;2022-08-06T09:14:00;0.93;;;0.60;;
5428;SDS011;2737;52.386;9.980;2022-08-06T09:16:29;0.80;;;0.60;;
5428;SDS011;2737;52.386;9.980;2022-08-06T09:18:57;1.37;;;0.70;;
5428;SDS011;2737;52.386;9.980;2022-08-06T09:21:25;2.17;;;0.70;;
5428;SDS011;2737;52.386;9.980;2022-08-06T09:23:52;1.17;;;0.60;;
5428;SDS011;2737;52.386;9.980;2022-08-06T09:26:19;1.10;;;0.70;;
5428;SDS011;2737;52.386;9.980;2022-08-06T09:28:46;1.77;;;0.73;;
5428;SDS011;2737;52.386;9.980;2022-08-06T09:31:14;1.80;;;0.67;;
5428;SDS011;2737;52.386;9.980;2022-08-06T09:33:52;1.50;;;0.60;;
5428;SDS011;2737;52.386;9.980;2022-08-06T09:36:20;1.27;;;0.70;;
5428;SDS011;2737;52.386;9.980;2022-08-06T09:38:48;2.23;;;1.20;;
5428;SDS011;2737;52.386;9.980;2022-08-06T09:41:17;0.70;;;0.60;;
5428;SDS011;2737;52.386;9.980;2022-08-06T09:43:45;1.70;;;0.60;;
5428;SDS011;2737;52.386;9.980;2022-08-06T09:46:14;1.20;;;0.60;;
5428;SDS011;2737;52.386;9.980;2022-08-06T09:48:59;0.90;;;0.67;;
5428;SDS011;2737;52.386;9.980;2022-08-06T09:51:29;2.70;;;0.70;;
5428;SDS011;2737;52.386;9.980;2022-08-06T09:54:00;1.10;;;0.67;;
5428;SDS011;2737;52.386;9.980;2022-08-06T09:56:29;1.70;;;0.60;;
5428;SDS011;2737;52.386;9.980;2022-08-06T09:58:57;4.10;;;0.67;;
5428;SDS011;2737;52.386;9.980;2022-08-06T10:01:25;1.63;;;0.80;;
5428;SDS011;2737;52.386;9.980;2022-08-06T10:03:53;4.00;;;1.10;;
5428;SDS011;2737;52.386;9.980;2022-08-06T10:06:24;7.50;;;0.73;;
5428;SDS011;2737;52.386;9.980;2022-08-06T10:09:04;1.60;;;0.93;;
5428;SDS011;2737;52.386;9.980;2022-08-06T10:11:35;1.67;;;0.70;;
5428;SDS011;2737;52.386;9.980;2022-08-06T10:14:03;1.57;;;0.60;;
5428;SDS011;2737;52.386;9.980;2022-08-06T10:16:31;1.83;;;0.80;;
5428;SDS011;2737;52.386;9.980;2022-08-06T10:18:58;1.87;;;0.60;;
5428;SDS011;2737;52.386;9.980;2022-08-06T10:21:29;3.10;;;0.70;;
5428;SDS011;2737;52.386;9.980;2022-08-06T10:24:00;1.80;;;0.60;;
5428;SDS011;2737;52.386;9.980;2022-08-06T10:26:30;0.63;;;0.50;;
5428;SDS011;2737;52.386;9.980;2022-08-06T10:29:00;4.47;;;0.63;;
5428;SDS011;2737;52.386;9.980;2022-08-06T10:31:29;0.60;;;0.53;;
5428;SDS011;2737;52.386;9.980;2022-08-06T10:33:59;2.07;;;0.60;;
5428;SDS011;2737;52.386;9.980;2022-08-06T10:36:38;0.50;;;0.40;;
5428;SDS011;2737;52.386;9.980;2022-08-06T10:39:07;4.40;;;0.60;;
5428;SDS011;2737;52.386;9.980;2022-08-06T10:41:34;3.10;;;0.60;;
5428;SDS011;2737;52.386;9.980;2022-08-06T10:44:05;4.33;;;0.73;;
5428;SDS011;2737;52.386;9.980;2022-08-06T10:46:33;3.07;;;0.60;;
5428;SDS011;2737;52.386;9.980;2022-08-06T10:49:01;4.57;;;0.70;;
5428;SDS011;2737;52.386;9.980;2022-08-06T10:51:28;1.80;;;0.60;;
5428;SDS011;2737;52.386;9.980;2022-08-06T10:53:57;2.13;;;0.63;;
5428;SDS011;2737;52.386;9.980;2022-08-06T10:56:24;1.50;;;0.60;;
5428;SDS011;2737;52.386;9.980;2022-08-06T10:58:51;2.77;;;0.60;;
5428;SDS011;2737;52.386;9.980;2022-08-06T11:01:24;0.83;;;0.60;;
5428;SDS011;2737;52.386;9.980;2022-08-06T11:04:05;2.70;;;0.70;;
5428;SDS011;2737;52.386;9.980;2022-08-06T11:06:48;0.90;;;0.60;;
5428;SDS011;2737;52.386;9.980;2022-08-06T11:12:49;1.17;;;0.60;;
5428;SDS011;2737;52.386;9.980;2022-08-06T11:15:19;2.60;;;0.60;;
5428;SDS011;2737;52.386;9.980;2022-08-06T11:17:48;0.80;;;0.60;;
5428;SDS011;2737;52.386;9.980;2022-08-06T11:20:35;2.80;;;0.50;;
5428;SDS011;2737;52.386;9.980;2022-08-06T11:25:52;1.73;;;0.60;;
5428;SDS011;2737;52.386;9.980;2022-08-06T11:31:29;1.53;;;0.60;;
5428;SDS011;2737;52.386;9.980;2022-08-06T11:34:02;0.50;;;0.50;;
5428;SDS011;2737;52.386;9.980;2022-08-06T11:36:42;1.87;;;0.70;;
5428;SDS011;2737;52.386;9.980;2022-08-06T11:39:16;0.50;;;0.40;;
5428;SDS011;2737;52.386;9.980;2022-08-06T11:41:46;2.53;;;0.67;;
5428;SDS011;2737;52.386;9.980;2022-08-06T11:44:15;1.13;;;0.60;;
5428;SDS011;2737;52.386;9.980;2022-08-06T11:46:44;1.17;;;0.70;;
5428;SDS011;2737;52.386;9.980;2022-08-06T11:49:20;3.73;;;0.90;;
5428;SDS011;2737;52.386;9.980;2022-08-06T11:51:50;1.10;;;0.65;;
5428;SDS011;2737;52.386;9.980;2022-08-06T11:54:21;5.47;;;0.73;;
5428;SDS011;2737;52.386;9.980;2022-08-06T12:00:02;1.17;;;0.60;;
5428;SDS011;2737;52.386;9.980;2022-08-06T12:02:54;2.22;;;0.90;;
5428;SDS011;2737;52.386;9.980;2022-08-06T12:05:33;3.40;;;0.70;;
5428;SDS011;2737;52.386;9.980;2022-08-06T12:08:21;1.37;;;1.07;;
5428;SDS011;2737;52.386;9.980;2022-08-06T12:13:58;1.00;;;0.60;;
5428;SDS011;2737;52.386;9.980;2022-08-06T12:16:35;2.35;;;0.80;;
5428;SDS011;2737;52.386;9.980;2022-08-06T12:19:04;1.23;;;0.60;;
5428;SDS011;2737;52.386;9.980;2022-08-06T12:21:37;2.33;;;0.63;;
5428;SDS011;2737;52.386;9.980;2022-08-06T12:24:05;1.90;;;0.60;;
5428;SDS011;2737;52.386;9.980;2022-08-06T12:26:34;0.67;;;0.50;;
5428;SDS011;2737;52.386;9.980;2022-08-06T12:29:05;1.63;;;0.60;;
5428;SDS011;2737;52.386;9.980;2022-08-06T12:31:34;1.13;;;0.60;;
5428;SDS011;2737;52.386;9.980;2022-08-06T12:34:03;3.33;;;0.63;;
5428;SDS011;2737;52.386;9.980;2022-08-06T12:36:32;1.13;;;0.60;;
5428;SDS011;2737;52.386;9.980;2022-08-06T12:39:02;1.27;;;0.60;;
5428;SDS011;2737;52.386;9.980;2022-08-06T12:41:36;0.77;;;0.70;;
5428;SDS011;2737;52.386;9.980;2022-08-06T12:44:10;3.83;;;0.70;;
5428;SDS011;2737;52.386;9.980;2022-08-06T12:46:38;1.23;;;0.60;;
5428;SDS011;2737;52.386;9.980;2022-08-06T12:49:06;1.77;;;0.60;;
5428;SDS011;2737;52.386;9.980;2022-08-06T12:51:33;1.40;;;0.65;;
5428;SDS011;2737;52.386;9.980;2022-08-06T12:54:02;1.87;;;0.50;;
5428;SDS011;2737;52.386;9.980;2022-08-06T12:56:37;1.97;;;0.60;;
5428;SDS011;2737;52.386;9.980;2022-08-06T12:59:08;0.70;;;0.50;;
5428;SDS011;2737;52.386;9.980;2022-08-06T13:01:37;1.43;;;0.67;;
5428;SDS011;2737;52.386;9.980;2022-08-06T13:04:06;0.97;;;0.60;;
5428;SDS011;2737;52.386;9.980;2022-08-06T13:06:36;1.15;;;0.60;;
5428;SDS011;2737;52.386;9.980;2022-08-06T13:09:05;1.13;;;0.60;;
5428;SDS011;2737;52.386;9.980;2022-08-06T13:11:32;0.70;;;0.70;;
5428;SDS011;2737;52.386;9.980;2022-08-06T13:14:09;3.65;;;0.60;;
5428;SDS011;2737;52.386;9.980;2022-08-06T13:16:38;0.80;;;0.60;;
5428;SDS011;2737;52.386;9.980;2022-08-06T13:19:07;6.23;;;0.80;;
5428;SDS011;2737;52.386;9.980;2022-08-06T13:21:36;2.78;;;0.60;;
5428;SDS011;2737;52.386;9.980;2022-08-06T13:24:04;1.10;;;0.60;;
5428;SDS011;2737;52.386;9.980;2022-08-06T13:26:33;0.83;;;0.60;;
5428;SDS011;2737;52.386;9.980;2022-08-06T13:29:14;0.97;;;0.57;;
5428;SDS011;2737;52.386;9.980;2022-08-06T13:31:42;0.77;;;0.50;;
5428;SDS011;2737;52.386;9.980;2022-08-06T13:34:11;0.63;;;0.50;;
5428;SDS011;2737;52.386;9.980;2022-08-06T13:36:39;0.70;;;0.60;;
5428;SDS011;2737;52.386;9.980;2022-08-06T13:39:17;0.60;;;0.60;;
5428;SDS011;2737;52.386;9.980;2022-08-06T13:41:58;2.42;;;0.60;;
5428;SDS011;2737;52.386;9.980;2022-08-06T13:44:29;1.23;;;0.70;;
5428;SDS011;2737;52.386;9.980;2022-08-06T13:46:58;2.15;;;0.90;;
5428;SDS011;2737;52.386;9.980;2022-08-06T13:49:25;0.50;;;0.50;;
5428;SDS011;2737;52.386;9.980;2022-08-06T13:51:52;0.97;;;0.50;;
5428;SDS011;2737;52.386;9.980;2022-08-06T13:54:19;1.40;;;0.90;;
5428;SDS011;2737;52.386;9.980;2022-08-06T13:56:47;2.45;;;0.90;;
5428;SDS011;2737;52.386;9.980;2022-08-06T13:59:15;1.47;;;0.60;;
5428;SDS011;2737;52.386;9.980;2022-08-06T14:01:44;2.75;;;0.50;;
5428;SDS011;2737;52.386;9.980;2022-08-06T14:04:12;0.70;;;0.60;;
5428;SDS011;2737;52.386;9.980;2022-08-06T14:06:40;1.73;;;0.60;;
5428;SDS011;2737;52.386;9.980;2022-08-06T14:09:08;0.60;;;0.60;;
5428;SDS011;2737;52.386;9.980;2022-08-06T14:11:35;1.25;;;0.70;;
5428;SDS011;2737;52.386;9.980;2022-08-06T14:14:02;3.42;;;0.60;;
5428;SDS011;2737;52.386;9.980;2022-08-06T14:16:29;2.03;;;0.63;;
5428;SDS011;2737;52.386;9.980;2022-08-06T14:18:57;2.95;;;0.60;;
5428;SDS011;2737;52.386;9.980;2022-08-06T14:21:24;0.50;;;0.50;;
5428;SDS011;2737;52.386;9.980;2022-08-06T14:23:51;2.20;;;0.63;;
5428;SDS011;2737;52.386;9.980;2022-08-06T14:26:18;1.48;;;0.60;;
5428;SDS011;2737;52.386;9.980;2022-08-06T14:28:45;2.45;;;0.70;;
5428;SDS011;2737;52.386;9.980;2022-08-06T14:31:12;0.68;;;0.55;;
5428;SDS011;2737;52.386;9.980;2022-08-06T14:33:40;0.60;;;0.50;;
5428;SDS011;2737;52.386;9.980;2022-08-06T14:36:09;0.60;;;0.50;;
5428;SDS011;2737;52.386;9.980;2022-08-06T14:38:36;0.90;;;0.60;;
5428;SDS011;2737;52.386;9.980;2022-08-06T14:41:05;1.58;;;0.60;;
5428;SDS011;2737;52.386;9.980;2022-08-06T14:43:50;1.25;;;0.50;;
5428;SDS011;2737;52.386;9.980;2022-08-06T14:46:34;3.08;;;0.65;;
5428;SDS011;2737;52.386;9.980;2022-08-06T14:49:01;1.20;;;0.67;;
5428;SDS011;2737;52.386;9.980;2022-08-06T14:51:30;1.43;;;0.80;;
5428;SDS011;2737;52.386;9.980;2022-08-06T14:53:57;0.63;;;0.60;;
5428;SDS011;2737;52.386;9.980;2022-08-06T14:56:24;2.58;;;0.68;;
5428;SDS011;2737;52.386;9.980;2022-08-06T14:58:51;0.80;;;0.67;;
5428;SDS011;2737;52.386;9.980;2022-08-06T15:01:18;1.55;;;0.50;;
5428;SDS011;2737;52.386;9.980;2022-08-06T15:03:45;2.13;;;0.70;;
5428;SDS011;2737;52.386;9.980;2022-08-06T15:06:12;1.17;;;0.60;;
5428;SDS011;2737;52.386;9.980;2022-08-06T15:08:40;2.60;;;0.70;;
5428;SDS011;2737;52.386;9.980;2022-08-06T15:11:07;0.85;;;0.52;;
5428;SDS011;2737;52.386;9.980;2022-08-06T15:13:34;2.20;;;0.90;;
5428;SDS011;2737;52.386;9.980;2022-08-06T15:16:01;2.63;;;0.60;;
5428;SDS011;2737;52.386;9.980;2022-08-06T15:18:29;0.95;;;0.60;;
5428;SDS011;2737;52.386;9.980;2022-08-06T15:20:56;0.60;;;0.60;;
5428;SDS011;2737;52.386;9.980;2022-08-06T15:23:23;2.33;;;0.87;;
5428;SDS011;2737;52.386;9.980;2022-08-06T15:25:51;3.28;;;0.82;;
5428;SDS011;2737;52.386;9.980;2022-08-06T15:28:18;2.63;;;0.60;;
5428;SDS011;2737;52.386;9.980;2022-08-06T15:30:45;1.10;;;0.70;;
5428;SDS011;2737;52.386;9.980;2022-08-06T15:33:13;1.23;;;0.60;;
5428;SDS011;2737;52.386;9.980;2022-08-06T15:35:42;1.25;;;0.70;;
5428;SDS011;2737;52.386;9.980;2022-08-06T15:38:10;0.70;;;0.50;;
5428;SDS011;2737;52.386;9.980;2022-08-06T15:40:38;0.70;;;0.50;;
5428;SDS011;2737;52.386;9.980;2022-08-06T15:43:07;1.55;;;0.60;;
5428;SDS011;2737;52.386;9.980;2022-08-06T15:45:35;1.05;;;0.60;;
5428;SDS011;2737;52.386;9.980;2022-08-06T15:48:06;0.98;;;0.60;;